sensor_id;sensor_type;location;lat;lon;timestamp;P1;durP1;ratioP1;P2;durP2;ratioP2
13943;SDS011;7044;53.286;8.534;2022-11-12T00:00:48;7.37;;;4.73;;
13943;SDS011;7044;53.286;8.534;2022-11-12T00:03:15;6.43;;;4.80;;
13943;SDS011;7044;53.286;8.534;2022-11-12T00:05:42;8.43;;;4.90;;
13943;SDS011;7044;53.286;8.534;2022-11-12T00:08:10;7.13;;;4.87;;
13943;SDS011;7044;53.286;8.534;2022-11-12T00:10:36;5.47;;;4.63;;
13943;SDS011;7044;53.286;8.534;2022-11-12T00:13:05;8.37;;;4.37;;
13943;SDS011;7044;53.286;8.534;2022-11-12T00:15:32;7.47;;;4.57;;
13943;SDS011;7044;53.286;8.534;2022-11-12T00:17:59;6.73;;;4.80;;
13943;SDS011;7044;53.286;8.534;2022-11-12T00:20:26;7.63;;;4.37;;
13943;SDS011;7044;53.286;8.534;2022-11-12T00:22:52;7.30;;;4.50;;
13943;SDS011;7044;53.286;8.534;2022-11-12T00:25:19;7.70;;;4.70;;
13943;SDS011;7044;53.286;8.534;2022-11-12T00:27:46;6.67;;;4.53;;
13943;SDS011;7044;53.286;8.534;2022-11-12T00:30:14;5.47;;;4.23;;
13943;SDS011;7044;53.286;8.534;2022-11-12T00:32:41;5.40;;;4.17;;
13943;SDS011;7044;53.286;8.534;2022-11-12T00:35:09;6.33;;;5.00;;
13943;SDS011;7044;53.286;8.534;2022-11-12T00:37:36;9.67;;;4.57;;
13943;SDS011;7044;53.286;8.534;2022-11-12T00:40:03;5.13;;;4.63;;
13943;SDS011;7044;53.286;8.534;2022-11-12T00:42:31;9.30;;;4.73;;
13943;SDS011;7044;53.286;8.534;2022-11-12T00:44:58;6.03;;;4.37;;
13943;SDS011;7044;53.286;8.534;2022-11-12T00:47:26;6.40;;;4.03;;
13943;SDS011;7044;53.286;8.534;2022-11-12T00:49:53;6.07;;;4.23;;
13943;SDS011;7044;53.286;8.534;2022-11-12T00:52:20;4.63;;;3.87;;
13943;SDS011;7044;53.286;8.534;2022-11-12T00:54:48;5.67;;;4.10;;
13943;SDS011;7044;53.286;8.534;2022-11-12T00:57:14;4.57;;;3.83;;
13943;SDS011;7044;53.286;8.534;2022-11-12T00:59:41;5.73;;;4.13;;
13943;SDS011;7044;53.286;8.534;2022-11-12T01:02:08;10.20;;;4.60;;
13943;SDS011;7044;53.286;8.534;2022-11-12T01:04:36;9.50;;;4.13;;
13943;SDS011;7044;53.286;8.534;2022-11-12T01:07:03;6.00;;;4.50;;
13943;SDS011;7044;53.286;8.534;2022-11-12T01:09:29;6.33;;;4.60;;
13943;SDS011;7044;53.286;8.534;2022-11-12T01:11:56;6.87;;;4.00;;
13943;SDS011;7044;53.286;8.534;2022-11-12T01:14:23;6.80;;;4.77;;
13943;SDS011;7044;53.286;8.534;2022-11-12T01:16:50;7.50;;;4.60;;
13943;SDS011;7044;53.286;8.534;2022-11-12T01:19:17;5.00;;;4.23;;
13943;SDS011;7044;53.286;8.534;2022-11-12T01:21:45;5.83;;;4.93;;
13943;SDS011;7044;53.286;8.534;2022-11-12T01:24:12;6.33;;;4.07;;
13943;SDS011;7044;53.286;8.534;2022-11-12T01:26:39;5.87;;;5.17;;
13943;SDS011;7044;53.286;8.534;2022-11-12T01:29:06;8.47;;;4.87;;
13943;SDS011;7044;53.286;8.534;2022-11-12T01:31:34;7.77;;;5.10;;
13943;SDS011;7044;53.286;8.534;2022-11-12T01:34:02;6.63;;;4.60;;
13943;SDS011;7044;53.286;8.534;2022-11-12T01:36:31;6.03;;;4.43;;
13943;SDS011;7044;53.286;8.534;2022-11-12T01:39:02;6.60;;;5.03;;
13943;SDS011;7044;53.286;8.534;2022-11-12T01:41:30;6.90;;;4.70;;
13943;SDS011;7044;53.286;8.534;2022-11-12T01:44:05;5.43;;;4.60;;
13943;SDS011;7044;53.286;8.534;2022-11-12T01:46:39;7.17;;;5.27;;
13943;SDS011;7044;53.286;8.534;2022-11-12T01:49:13;8.33;;;5.17;;
13943;SDS011;7044;53.286;8.534;2022-11-12T01:51:45;6.47;;;4.67;;
13943;SDS011;7044;53.286;8.534;2022-11-12T01:54:16;7.63;;;4.70;;
13943;SDS011;7044;53.286;8.534;2022-11-12T01:56:45;6.20;;;4.73;;
13943;SDS011;7044;53.286;8.534;2022-11-12T01:59:15;6.60;;;5.00;;
13943;SDS011;7044;53.286;8.534;2022-11-12T02:01:45;5.97;;;4.23;;
13943;SDS011;7044;53.286;8.534;2022-11-12T02:04:11;7.33;;;5.17;;
13943;SDS011;7044;53.286;8.534;2022-11-12T02:06:39;7.57;;;4.80;;
13943;SDS011;7044;53.286;8.534;2022-11-12T02:09:07;7.37;;;4.47;;
13943;SDS011;7044;53.286;8.534;2022-11-12T02:11:36;4.23;;;3.80;;
13943;SDS011;7044;53.286;8.534;2022-11-12T02:14:03;11.07;;;4.67;;
13943;SDS011;7044;53.286;8.534;2022-11-12T02:16:30;7.60;;;4.97;;
13943;SDS011;7044;53.286;8.534;2022-11-12T02:18:59;7.27;;;4.83;;
13943;SDS011;7044;53.286;8.534;2022-11-12T02:21:28;8.93;;;5.00;;
13943;SDS011;7044;53.286;8.534;2022-11-12T02:23:59;10.47;;;4.70;;
13943;SDS011;7044;53.286;8.534;2022-11-12T02:26:28;6.40;;;4.70;;
13943;SDS011;7044;53.286;8.534;2022-11-12T02:28:57;7.37;;;4.73;;
13943;SDS011;7044;53.286;8.534;2022-11-12T02:31:24;7.43;;;4.60;;
13943;SDS011;7044;53.286;8.534;2022-11-12T02:33:51;7.07;;;4.97;;
13943;SDS011;7044;53.286;8.534;2022-11-12T02:36:18;7.23;;;4.93;;
13943;SDS011;7044;53.286;8.534;2022-11-12T02:38:47;10.27;;;5.43;;
13943;SDS011;7044;53.286;8.534;2022-11-12T02:41:14;6.80;;;4.40;;
13943;SDS011;7044;53.286;8.534;2022-11-12T02:43:41;6.90;;;4.73;;
13943;SDS011;7044;53.286;8.534;2022-11-12T02:46:09;10.07;;;4.37;;
13943;SDS011;7044;53.286;8.534;2022-11-12T02:48:36;5.13;;;4.30;;
13943;SDS011;7044;53.286;8.534;2022-11-12T02:51:03;9.23;;;4.83;;
13943;SDS011;7044;53.286;8.534;2022-11-12T02:53:30;9.80;;;5.23;;
13943;SDS011;7044;53.286;8.534;2022-11-12T02:55:59;7.33;;;5.00;;
13943;SDS011;7044;53.286;8.534;2022-11-12T02:58:26;6.93;;;4.97;;
13943;SDS011;7044;53.286;8.534;2022-11-12T03:00:53;6.67;;;5.27;;
13943;SDS011;7044;53.286;8.534;2022-11-12T03:03:21;7.53;;;5.10;;
13943;SDS011;7044;53.286;8.534;2022-11-12T03:05:53;6.17;;;5.13;;
13943;SDS011;7044;53.286;8.534;2022-11-12T03:08:22;7.90;;;5.33;;
13943;SDS011;7044;53.286;8.534;2022-11-12T03:10:49;6.03;;;5.17;;
13943;SDS011;7044;53.286;8.534;2022-11-12T03:13:18;10.17;;;5.97;;
13943;SDS011;7044;53.286;8.534;2022-11-12T03:15:45;9.27;;;5.00;;
13943;SDS011;7044;53.286;8.534;2022-11-12T03:18:12;7.13;;;5.27;;
13943;SDS011;7044;53.286;8.534;2022-11-12T03:20:39;7.10;;;4.83;;
13943;SDS011;7044;53.286;8.534;2022-11-12T03:23:07;6.63;;;4.73;;
13943;SDS011;7044;53.286;8.534;2022-11-12T03:25:36;8.70;;;5.33;;
13943;SDS011;7044;53.286;8.534;2022-11-12T03:28:04;12.07;;;5.70;;
13943;SDS011;7044;53.286;8.534;2022-11-12T03:30:34;8.80;;;5.27;;
13943;SDS011;7044;53.286;8.534;2022-11-12T03:33:03;5.60;;;4.70;;
13943;SDS011;7044;53.286;8.534;2022-11-12T03:35:30;10.13;;;5.00;;
13943;SDS011;7044;53.286;8.534;2022-11-12T03:37:58;7.80;;;5.67;;
13943;SDS011;7044;53.286;8.534;2022-11-12T03:40:25;6.87;;;4.80;;
13943;SDS011;7044;53.286;8.534;2022-11-12T03:42:52;7.57;;;5.10;;
13943;SDS011;7044;53.286;8.534;2022-11-12T03:45:20;7.10;;;5.07;;
13943;SDS011;7044;53.286;8.534;2022-11-12T03:47:50;11.20;;;5.43;;
13943;SDS011;7044;53.286;8.534;2022-11-12T03:50:19;11.43;;;4.90;;
13943;SDS011;7044;53.286;8.534;2022-11-12T03:52:47;7.67;;;5.27;;
13943;SDS011;7044;53.286;8.534;2022-11-12T03:55:16;6.27;;;4.97;;
13943;SDS011;7044;53.286;8.534;2022-11-12T03:57:45;9.70;;;5.73;;
13943;SDS011;7044;53.286;8.534;2022-11-12T04:00:13;8.07;;;5.40;;
13943;SDS011;7044;53.286;8.534;2022-11-12T04:02:41;8.23;;;4.83;;
13943;SDS011;7044;53.286;8.534;2022-11-12T04:05:09;6.27;;;4.77;;
13943;SDS011;7044;53.286;8.534;2022-11-12T04:07:57;7.20;;;4.90;;
13943;SDS011;7044;53.286;8.534;2022-11-12T04:10:42;7.63;;;5.07;;
13943;SDS011;7044;53.286;8.534;2022-11-12T04:13:09;7.07;;;5.07;;
13943;SDS011;7044;53.286;8.534;2022-11-12T04:15:55;6.10;;;5.00;;
13943;SDS011;7044;53.286;8.534;2022-11-12T04:18:41;6.83;;;5.23;;
13943;SDS011;7044;53.286;8.534;2022-11-12T04:21:29;5.90;;;5.20;;
13943;SDS011;7044;53.286;8.534;2022-11-12T04:24:16;7.47;;;5.43;;
13943;SDS011;7044;53.286;8.534;2022-11-12T04:27:02;11.77;;;5.13;;
13943;SDS011;7044;53.286;8.534;2022-11-12T04:29:29;8.93;;;5.50;;
13943;SDS011;7044;53.286;8.534;2022-11-12T04:32:13;7.30;;;4.53;;
13943;SDS011;7044;53.286;8.534;2022-11-12T04:34:40;6.03;;;4.07;;
13943;SDS011;7044;53.286;8.534;2022-11-12T04:37:08;11.33;;;4.33;;
13943;SDS011;7044;53.286;8.534;2022-11-12T04:39:35;5.90;;;4.20;;
13943;SDS011;7044;53.286;8.534;2022-11-12T04:42:02;6.20;;;3.83;;
13943;SDS011;7044;53.286;8.534;2022-11-12T04:44:47;5.03;;;3.90;;
13943;SDS011;7044;53.286;8.534;2022-11-12T04:47:25;4.83;;;3.30;;
13943;SDS011;7044;53.286;8.534;2022-11-12T04:49:53;5.53;;;3.83;;
13943;SDS011;7044;53.286;8.534;2022-11-12T04:52:21;5.47;;;3.60;;
13943;SDS011;7044;53.286;8.534;2022-11-12T04:54:48;5.23;;;3.33;;
13943;SDS011;7044;53.286;8.534;2022-11-12T04:57:15;4.60;;;3.73;;
13943;SDS011;7044;53.286;8.534;2022-11-12T04:59:41;4.37;;;3.43;;
13943;SDS011;7044;53.286;8.534;2022-11-12T05:02:08;11.00;;;4.10;;
13943;SDS011;7044;53.286;8.534;2022-11-12T05:04:35;4.97;;;3.70;;
13943;SDS011;7044;53.286;8.534;2022-11-12T05:07:02;4.57;;;4.03;;
13943;SDS011;7044;53.286;8.534;2022-11-12T05:09:30;7.10;;;4.43;;
13943;SDS011;7044;53.286;8.534;2022-11-12T05:11:57;5.53;;;4.37;;
13943;SDS011;7044;53.286;8.534;2022-11-12T05:14:24;5.93;;;5.07;;
13943;SDS011;7044;53.286;8.534;2022-11-12T05:16:50;9.43;;;4.83;;
13943;SDS011;7044;53.286;8.534;2022-11-12T05:19:18;7.67;;;5.40;;
13943;SDS011;7044;53.286;8.534;2022-11-12T05:21:44;7.47;;;4.97;;
13943;SDS011;7044;53.286;8.534;2022-11-12T05:24:29;8.47;;;5.37;;
13943;SDS011;7044;53.286;8.534;2022-11-12T05:26:57;7.63;;;6.00;;
13943;SDS011;7044;53.286;8.534;2022-11-12T05:29:24;8.43;;;5.63;;
13943;SDS011;7044;53.286;8.534;2022-11-12T05:31:51;9.67;;;5.47;;
13943;SDS011;7044;53.286;8.534;2022-11-12T05:34:17;8.57;;;5.70;;
13943;SDS011;7044;53.286;8.534;2022-11-12T05:36:44;12.93;;;5.63;;
13943;SDS011;7044;53.286;8.534;2022-11-12T05:39:11;7.67;;;5.97;;
13943;SDS011;7044;53.286;8.534;2022-11-12T05:41:39;9.00;;;5.23;;
13943;SDS011;7044;53.286;8.534;2022-11-12T05:44:06;9.77;;;5.47;;
13943;SDS011;7044;53.286;8.534;2022-11-12T05:46:33;9.77;;;5.70;;
13943;SDS011;7044;53.286;8.534;2022-11-12T05:49:00;6.90;;;5.40;;
13943;SDS011;7044;53.286;8.534;2022-11-12T05:51:26;18.17;;;6.20;;
13943;SDS011;7044;53.286;8.534;2022-11-12T05:53:53;7.00;;;5.70;;
13943;SDS011;7044;53.286;8.534;2022-11-12T05:56:20;7.37;;;4.80;;
13943;SDS011;7044;53.286;8.534;2022-11-12T05:58:48;9.03;;;6.33;;
13943;SDS011;7044;53.286;8.534;2022-11-12T06:01:15;7.37;;;5.40;;
13943;SDS011;7044;53.286;8.534;2022-11-12T06:03:42;8.20;;;5.97;;
13943;SDS011;7044;53.286;8.534;2022-11-12T06:06:08;8.43;;;5.27;;
13943;SDS011;7044;53.286;8.534;2022-11-12T06:08:35;7.77;;;5.67;;
13943;SDS011;7044;53.286;8.534;2022-11-12T06:11:02;8.77;;;5.27;;
13943;SDS011;7044;53.286;8.534;2022-11-12T06:13:29;10.10;;;5.43;;
13943;SDS011;7044;53.286;8.534;2022-11-12T06:15:57;8.87;;;5.20;;
13943;SDS011;7044;53.286;8.534;2022-11-12T06:18:24;7.90;;;4.83;;
13943;SDS011;7044;53.286;8.534;2022-11-12T06:20:51;9.17;;;5.27;;
13943;SDS011;7044;53.286;8.534;2022-11-12T06:23:36;12.97;;;5.87;;
13943;SDS011;7044;53.286;8.534;2022-11-12T06:26:02;7.20;;;4.73;;
13943;SDS011;7044;53.286;8.534;2022-11-12T06:28:29;8.57;;;5.30;;
13943;SDS011;7044;53.286;8.534;2022-11-12T06:30:57;7.40;;;5.13;;
13943;SDS011;7044;53.286;8.534;2022-11-12T06:33:24;8.43;;;5.70;;
13943;SDS011;7044;53.286;8.534;2022-11-12T06:35:57;6.80;;;5.07;;
13943;SDS011;7044;53.286;8.534;2022-11-12T06:38:27;6.47;;;5.07;;
13943;SDS011;7044;53.286;8.534;2022-11-12T06:40:54;7.17;;;4.97;;
13943;SDS011;7044;53.286;8.534;2022-11-12T06:43:21;8.80;;;5.10;;
13943;SDS011;7044;53.286;8.534;2022-11-12T06:45:48;9.87;;;5.63;;
13943;SDS011;7044;53.286;8.534;2022-11-12T06:48:16;5.93;;;4.67;;
13943;SDS011;7044;53.286;8.534;2022-11-12T06:50:43;7.37;;;5.10;;
13943;SDS011;7044;53.286;8.534;2022-11-12T06:53:10;7.33;;;4.77;;
13943;SDS011;7044;53.286;8.534;2022-11-12T06:55:37;6.17;;;4.00;;
13943;SDS011;7044;53.286;8.534;2022-11-12T06:58:04;6.83;;;5.30;;
13943;SDS011;7044;53.286;8.534;2022-11-12T07:00:30;5.07;;;4.40;;
13943;SDS011;7044;53.286;8.534;2022-11-12T07:02:57;8.37;;;5.37;;
13943;SDS011;7044;53.286;8.534;2022-11-12T07:05:25;6.83;;;5.20;;
13943;SDS011;7044;53.286;8.534;2022-11-12T07:07:53;9.07;;;5.93;;
13943;SDS011;7044;53.286;8.534;2022-11-12T07:10:20;8.10;;;5.63;;
13943;SDS011;7044;53.286;8.534;2022-11-12T07:12:46;7.47;;;4.97;;
13943;SDS011;7044;53.286;8.534;2022-11-12T07:15:13;5.87;;;4.47;;
13943;SDS011;7044;53.286;8.534;2022-11-12T07:17:43;7.00;;;5.07;;
13943;SDS011;7044;53.286;8.534;2022-11-12T07:20:10;5.87;;;4.73;;
13943;SDS011;7044;53.286;8.534;2022-11-12T07:22:39;7.30;;;5.37;;
13943;SDS011;7044;53.286;8.534;2022-11-12T07:25:06;11.13;;;5.30;;
13943;SDS011;7044;53.286;8.534;2022-11-12T07:27:33;48.27;;;23.50;;
13943;SDS011;7044;53.286;8.534;2022-11-12T07:30:00;37.60;;;17.03;;
13943;SDS011;7044;53.286;8.534;2022-11-12T07:32:27;12.30;;;8.73;;
13943;SDS011;7044;53.286;8.534;2022-11-12T07:34:55;10.63;;;7.37;;
13943;SDS011;7044;53.286;8.534;2022-11-12T07:37:21;8.73;;;6.50;;
13943;SDS011;7044;53.286;8.534;2022-11-12T07:39:50;8.20;;;6.00;;
13943;SDS011;7044;53.286;8.534;2022-11-12T07:42:16;6.57;;;4.43;;
13943;SDS011;7044;53.286;8.534;2022-11-12T07:44:43;6.57;;;4.43;;
13943;SDS011;7044;53.286;8.534;2022-11-12T07:47:10;5.93;;;4.83;;
13943;SDS011;7044;53.286;8.534;2022-11-12T07:49:37;6.50;;;4.90;;
13943;SDS011;7044;53.286;8.534;2022-11-12T07:52:03;8.37;;;6.17;;
13943;SDS011;7044;53.286;8.534;2022-11-12T07:54:30;8.83;;;6.20;;
13943;SDS011;7044;53.286;8.534;2022-11-12T07:56:58;9.77;;;6.13;;
13943;SDS011;7044;53.286;8.534;2022-11-12T07:59:25;8.23;;;6.23;;
13943;SDS011;7044;53.286;8.534;2022-11-12T08:01:52;8.50;;;6.53;;
13943;SDS011;7044;53.286;8.534;2022-11-12T08:04:19;7.83;;;6.63;;
13943;SDS011;7044;53.286;8.534;2022-11-12T08:06:45;9.33;;;6.77;;
13943;SDS011;7044;53.286;8.534;2022-11-12T08:09:13;10.30;;;6.60;;
13943;SDS011;7044;53.286;8.534;2022-11-12T08:11:40;10.63;;;6.33;;
13943;SDS011;7044;53.286;8.534;2022-11-12T08:14:08;10.17;;;6.33;;
13943;SDS011;7044;53.286;8.534;2022-11-12T08:16:35;9.90;;;7.60;;
13943;SDS011;7044;53.286;8.534;2022-11-12T08:19:02;12.80;;;6.40;;
13943;SDS011;7044;53.286;8.534;2022-11-12T08:21:28;10.20;;;6.13;;
13943;SDS011;7044;53.286;8.534;2022-11-12T08:23:55;9.77;;;6.70;;
13943;SDS011;7044;53.286;8.534;2022-11-12T08:26:22;11.73;;;7.60;;
13943;SDS011;7044;53.286;8.534;2022-11-12T08:28:50;10.87;;;7.20;;
13943;SDS011;7044;53.286;8.534;2022-11-12T08:31:19;10.93;;;7.00;;
13943;SDS011;7044;53.286;8.534;2022-11-12T08:33:47;10.47;;;6.60;;
13943;SDS011;7044;53.286;8.534;2022-11-12T08:36:15;9.30;;;6.23;;
13943;SDS011;7044;53.286;8.534;2022-11-12T08:38:42;9.20;;;6.80;;
13943;SDS011;7044;53.286;8.534;2022-11-12T08:41:10;9.87;;;7.20;;
13943;SDS011;7044;53.286;8.534;2022-11-12T08:43:38;11.87;;;6.07;;
13943;SDS011;7044;53.286;8.534;2022-11-12T08:46:06;8.83;;;6.20;;
13943;SDS011;7044;53.286;8.534;2022-11-12T08:48:34;8.67;;;6.70;;
13943;SDS011;7044;53.286;8.534;2022-11-12T08:51:04;9.03;;;6.17;;
13943;SDS011;7044;53.286;8.534;2022-11-12T08:53:31;9.17;;;6.93;;
13943;SDS011;7044;53.286;8.534;2022-11-12T08:55:58;10.30;;;7.07;;
13943;SDS011;7044;53.286;8.534;2022-11-12T08:58:26;12.43;;;7.63;;
13943;SDS011;7044;53.286;8.534;2022-11-12T09:00:53;8.57;;;6.37;;
13943;SDS011;7044;53.286;8.534;2022-11-12T09:03:21;10.73;;;6.97;;
13943;SDS011;7044;53.286;8.534;2022-11-12T09:05:51;12.90;;;6.20;;
13943;SDS011;7044;53.286;8.534;2022-11-12T09:08:19;13.63;;;7.10;;
13943;SDS011;7044;53.286;8.534;2022-11-12T09:10:47;11.47;;;6.70;;
13943;SDS011;7044;53.286;8.534;2022-11-12T09:13:15;11.43;;;7.53;;
13943;SDS011;7044;53.286;8.534;2022-11-12T09:15:42;9.37;;;6.97;;
13943;SDS011;7044;53.286;8.534;2022-11-12T09:18:10;9.93;;;7.77;;
13943;SDS011;7044;53.286;8.534;2022-11-12T09:20:38;12.23;;;7.70;;
13943;SDS011;7044;53.286;8.534;2022-11-12T09:23:08;9.13;;;7.37;;
13943;SDS011;7044;53.286;8.534;2022-11-12T09:25:37;9.70;;;7.10;;
13943;SDS011;7044;53.286;8.534;2022-11-12T09:28:07;10.47;;;7.37;;
13943;SDS011;7044;53.286;8.534;2022-11-12T09:30:35;11.27;;;7.63;;
13943;SDS011;7044;53.286;8.534;2022-11-12T09:33:03;10.00;;;6.87;;
13943;SDS011;7044;53.286;8.534;2022-11-12T09:35:30;11.83;;;7.27;;
13943;SDS011;7044;53.286;8.534;2022-11-12T09:37:57;11.00;;;7.47;;
13943;SDS011;7044;53.286;8.534;2022-11-12T09:40:31;9.97;;;7.30;;
13943;SDS011;7044;53.286;8.534;2022-11-12T09:43:10;11.23;;;7.40;;
13943;SDS011;7044;53.286;8.534;2022-11-12T09:45:43;11.07;;;8.00;;
13943;SDS011;7044;53.286;8.534;2022-11-12T09:48:13;11.07;;;8.10;;
13943;SDS011;7044;53.286;8.534;2022-11-12T09:50:46;13.03;;;8.40;;
13943;SDS011;7044;53.286;8.534;2022-11-12T09:53:24;13.00;;;7.83;;
13943;SDS011;7044;53.286;8.534;2022-11-12T09:55:59;10.90;;;8.20;;
13943;SDS011;7044;53.286;8.534;2022-11-12T09:58:30;14.80;;;9.00;;
13943;SDS011;7044;53.286;8.534;2022-11-12T10:00:57;17.77;;;9.47;;
13943;SDS011;7044;53.286;8.534;2022-11-12T10:03:30;10.33;;;8.00;;
13943;SDS011;7044;53.286;8.534;2022-11-12T10:06:03;13.47;;;8.47;;
13943;SDS011;7044;53.286;8.534;2022-11-12T10:08:38;12.23;;;8.27;;
13943;SDS011;7044;53.286;8.534;2022-11-12T10:11:25;13.13;;;8.13;;
13943;SDS011;7044;53.286;8.534;2022-11-12T10:14:48;10.90;;;7.60;;
13943;SDS011;7044;53.286;8.534;2022-11-12T10:17:49;14.73;;;7.40;;
13943;SDS011;7044;53.286;8.534;2022-11-12T10:20:20;9.63;;;7.47;;
13943;SDS011;7044;53.286;8.534;2022-11-12T10:22:59;10.80;;;7.55;;
13943;SDS011;7044;53.286;8.534;2022-11-12T10:25:36;12.90;;;8.70;;
13943;SDS011;7044;53.286;8.534;2022-11-12T10:28:11;12.63;;;8.45;;
13943;SDS011;7044;53.286;8.534;2022-11-12T10:30:45;10.07;;;7.97;;
13943;SDS011;7044;53.286;8.534;2022-11-12T10:33:12;16.15;;;9.52;;
13943;SDS011;7044;53.286;8.534;2022-11-12T10:35:40;13.80;;;9.45;;
13943;SDS011;7044;53.286;8.534;2022-11-12T10:38:10;15.48;;;10.60;;
13943;SDS011;7044;53.286;8.534;2022-11-12T10:40:39;15.40;;;10.50;;
13943;SDS011;7044;53.286;8.534;2022-11-12T10:43:20;15.70;;;10.68;;
13943;SDS011;7044;53.286;8.534;2022-11-12T10:45:48;15.63;;;10.73;;
13943;SDS011;7044;53.286;8.534;2022-11-12T10:48:20;15.25;;;10.65;;
13943;SDS011;7044;53.286;8.534;2022-11-12T10:50:48;17.27;;;10.77;;
13943;SDS011;7044;53.286;8.534;2022-11-12T10:53:28;13.88;;;10.57;;
13943;SDS011;7044;53.286;8.534;2022-11-12T10:55:58;19.38;;;10.80;;
13943;SDS011;7044;53.286;8.534;2022-11-12T10:58:27;15.65;;;10.93;;
13943;SDS011;7044;53.286;8.534;2022-11-12T11:00:55;16.00;;;10.73;;
13943;SDS011;7044;53.286;8.534;2022-11-12T11:03:24;15.77;;;10.20;;
13943;SDS011;7044;53.286;8.534;2022-11-12T11:05:55;13.90;;;10.00;;
13943;SDS011;7044;53.286;8.534;2022-11-12T11:08:31;13.10;;;10.55;;
13943;SDS011;7044;53.286;8.534;2022-11-12T11:11:12;16.13;;;11.48;;
13943;SDS011;7044;53.286;8.534;2022-11-12T11:13:46;17.27;;;9.68;;
13943;SDS011;7044;53.286;8.534;2022-11-12T11:16:14;13.55;;;9.48;;
13943;SDS011;7044;53.286;8.534;2022-11-12T11:18:44;14.45;;;10.10;;
13943;SDS011;7044;53.286;8.534;2022-11-12T11:21:24;15.05;;;9.82;;
13943;SDS011;7044;53.286;8.534;2022-11-12T11:24:06;13.93;;;8.85;;
13943;SDS011;7044;53.286;8.534;2022-11-12T11:26:48;18.02;;;8.95;;
13943;SDS011;7044;53.286;8.534;2022-11-12T11:29:29;12.63;;;8.50;;
13943;SDS011;7044;53.286;8.534;2022-11-12T11:32:06;13.02;;;8.35;;
13943;SDS011;7044;53.286;8.534;2022-11-12T11:34:41;12.85;;;7.22;;
13943;SDS011;7044;53.286;8.534;2022-11-12T11:37:17;11.50;;;7.00;;
13943;SDS011;7044;53.286;8.534;2022-11-12T11:39:52;11.93;;;7.20;;
13943;SDS011;7044;53.286;8.534;2022-11-12T11:45:26;10.65;;;7.35;;
13943;SDS011;7044;53.286;8.534;2022-11-12T11:48:00;8.93;;;6.53;;
13943;SDS011;7044;53.286;8.534;2022-11-12T11:50:34;12.85;;;7.63;;
13943;SDS011;7044;53.286;8.534;2022-11-12T11:53:13;12.57;;;7.43;;
13943;SDS011;7044;53.286;8.534;2022-11-12T11:55:48;13.15;;;7.22;;
13943;SDS011;7044;53.286;8.534;2022-11-12T12:01:27;13.43;;;7.55;;
13943;SDS011;7044;53.286;8.534;2022-11-12T12:04:06;10.88;;;7.15;;
13943;SDS011;7044;53.286;8.534;2022-11-12T12:06:51;9.10;;;6.68;;
13943;SDS011;7044;53.286;8.534;2022-11-12T12:09:30;9.13;;;6.88;;
13943;SDS011;7044;53.286;8.534;2022-11-12T12:12:03;11.38;;;7.00;;
13943;SDS011;7044;53.286;8.534;2022-11-12T12:14:45;12.48;;;7.57;;
13943;SDS011;7044;53.286;8.534;2022-11-12T12:17:25;10.63;;;6.18;;
13943;SDS011;7044;53.286;8.534;2022-11-12T12:20:10;10.38;;;6.75;;
13943;SDS011;7044;53.286;8.534;2022-11-12T12:22:45;9.10;;;7.22;;
13943;SDS011;7044;53.286;8.534;2022-11-12T12:25:17;10.15;;;7.43;;
13943;SDS011;7044;53.286;8.534;2022-11-12T12:27:50;12.23;;;7.18;;
13943;SDS011;7044;53.286;8.534;2022-11-12T12:30:21;10.68;;;7.18;;
13943;SDS011;7044;53.286;8.534;2022-11-12T12:32:51;9.40;;;6.93;;
13943;SDS011;7044;53.286;8.534;2022-11-12T12:35:23;10.80;;;7.05;;
13943;SDS011;7044;53.286;8.534;2022-11-12T12:37:55;12.45;;;7.07;;
13943;SDS011;7044;53.286;8.534;2022-11-12T12:40:31;11.45;;;7.90;;
13943;SDS011;7044;53.286;8.534;2022-11-12T12:43:00;12.32;;;6.82;;
13943;SDS011;7044;53.286;8.534;2022-11-12T12:45:35;9.90;;;6.45;;
13943;SDS011;7044;53.286;8.534;2022-11-12T12:48:10;15.40;;;7.50;;
13943;SDS011;7044;53.286;8.534;2022-11-12T12:50:40;11.05;;;7.70;;
13943;SDS011;7044;53.286;8.534;2022-11-12T12:53:21;13.75;;;7.50;;
13943;SDS011;7044;53.286;8.534;2022-11-12T12:55:57;13.25;;;7.18;;
13943;SDS011;7044;53.286;8.534;2022-11-12T12:58:26;10.68;;;7.30;;
13943;SDS011;7044;53.286;8.534;2022-11-12T13:00:56;9.60;;;6.45;;
13943;SDS011;7044;53.286;8.534;2022-11-12T13:06:26;13.48;;;6.53;;
13943;SDS011;7044;53.286;8.534;2022-11-12T13:08:55;9.80;;;6.82;;
13943;SDS011;7044;53.286;8.534;2022-11-12T13:17:47;9.73;;;5.95;;
13943;SDS011;7044;53.286;8.534;2022-11-12T13:23:01;6.93;;;5.57;;
13943;SDS011;7044;53.286;8.534;2022-11-12T13:25:29;6.53;;;5.68;;
13943;SDS011;7044;53.286;8.534;2022-11-12T13:28:03;9.98;;;5.68;;
13943;SDS011;7044;53.286;8.534;2022-11-12T13:33:30;8.63;;;5.63;;
13943;SDS011;7044;53.286;8.534;2022-11-12T13:36:23;11.07;;;5.78;;
13943;SDS011;7044;53.286;8.534;2022-11-12T13:38:52;12.95;;;5.57;;
13943;SDS011;7044;53.286;8.534;2022-11-12T13:41:21;9.05;;;5.68;;
13943;SDS011;7044;53.286;8.534;2022-11-12T13:44:03;8.30;;;5.80;;
13943;SDS011;7044;53.286;8.534;2022-11-12T13:46:32;10.82;;;7.57;;
13943;SDS011;7044;53.286;8.534;2022-11-12T13:49:00;22.55;;;11.77;;
13943;SDS011;7044;53.286;8.534;2022-11-12T13:51:38;10.98;;;7.15;;
13943;SDS011;7044;53.286;8.534;2022-11-12T13:54:23;8.60;;;5.63;;
13943;SDS011;7044;53.286;8.534;2022-11-12T13:56:51;13.45;;;6.05;;
13943;SDS011;7044;53.286;8.534;2022-11-12T13:59:18;10.00;;;6.07;;
13943;SDS011;7044;53.286;8.534;2022-11-12T14:01:46;10.23;;;5.95;;
13943;SDS011;7044;53.286;8.534;2022-11-12T14:04:15;9.45;;;5.15;;
13943;SDS011;7044;53.286;8.534;2022-11-12T14:06:45;8.57;;;5.35;;
13943;SDS011;7044;53.286;8.534;2022-11-12T14:09:20;7.68;;;5.70;;
13943;SDS011;7044;53.286;8.534;2022-11-12T14:14:58;10.20;;;6.10;;
13943;SDS011;7044;53.286;8.534;2022-11-12T14:17:35;13.88;;;6.45;;
13943;SDS011;7044;53.286;8.534;2022-11-12T14:20:13;10.13;;;6.45;;
13943;SDS011;7044;53.286;8.534;2022-11-12T14:22:51;9.75;;;6.00;;
13943;SDS011;7044;53.286;8.534;2022-11-12T14:25:19;11.70;;;6.05;;
13943;SDS011;7044;53.286;8.534;2022-11-12T14:27:48;17.17;;;6.50;;
13943;SDS011;7044;53.286;8.534;2022-11-12T14:30:19;12.63;;;5.68;;
13943;SDS011;7044;53.286;8.534;2022-11-12T14:32:48;11.13;;;6.03;;
13943;SDS011;7044;53.286;8.534;2022-11-12T14:35:27;11.93;;;6.68;;
13943;SDS011;7044;53.286;8.534;2022-11-12T14:37:59;11.23;;;5.72;;
13943;SDS011;7044;53.286;8.534;2022-11-12T14:40:32;14.25;;;6.07;;
13943;SDS011;7044;53.286;8.534;2022-11-12T14:43:02;9.57;;;5.65;;
13943;SDS011;7044;53.286;8.534;2022-11-12T14:45:30;17.40;;;6.40;;
13943;SDS011;7044;53.286;8.534;2022-11-12T14:47:57;10.45;;;5.88;;
13943;SDS011;7044;53.286;8.534;2022-11-12T14:50:24;10.23;;;6.47;;
13943;SDS011;7044;53.286;8.534;2022-11-12T14:52:54;8.45;;;5.72;;
13943;SDS011;7044;53.286;8.534;2022-11-12T14:55:27;9.60;;;4.78;;
13943;SDS011;7044;53.286;8.534;2022-11-12T14:57:56;12.32;;;6.07;;
13943;SDS011;7044;53.286;8.534;2022-11-12T15:00:37;11.00;;;5.85;;
13943;SDS011;7044;53.286;8.534;2022-11-12T15:03:07;9.20;;;5.60;;
13943;SDS011;7044;53.286;8.534;2022-11-12T15:05:51;9.95;;;5.85;;
13943;SDS011;7044;53.286;8.534;2022-11-12T15:08:29;12.23;;;5.75;;
13943;SDS011;7044;53.286;8.534;2022-11-12T15:11:19;7.30;;;5.00;;
13943;SDS011;7044;53.286;8.534;2022-11-12T15:13:52;10.48;;;5.57;;
13943;SDS011;7044;53.286;8.534;2022-11-12T15:16:22;10.50;;;5.55;;
13943;SDS011;7044;53.286;8.534;2022-11-12T15:18:58;12.50;;;6.68;;
13943;SDS011;7044;53.286;8.534;2022-11-12T15:21:43;9.32;;;5.72;;
13943;SDS011;7044;53.286;8.534;2022-11-12T15:24:15;12.07;;;6.38;;
13943;SDS011;7044;53.286;8.534;2022-11-12T15:26:52;12.13;;;6.43;;
13943;SDS011;7044;53.286;8.534;2022-11-12T15:29:25;9.45;;;6.32;;
13943;SDS011;7044;53.286;8.534;2022-11-12T15:31:55;8.68;;;5.75;;
13943;SDS011;7044;53.286;8.534;2022-11-12T15:34:25;12.10;;;6.32;;
13943;SDS011;7044;53.286;8.534;2022-11-12T15:37:23;9.55;;;5.88;;
13943;SDS011;7044;53.286;8.534;2022-11-12T15:39:53;9.82;;;5.95;;